createdAt,value
2019-05-25T00:00:09.436Z,6.37
2019-05-25T00:02:40.051Z,6.00
2019-05-25T00:05:10.498Z,6.37
2019-05-25T00:07:39.817Z,6.20
2019-05-25T00:10:09.256Z,6.40
2019-05-25T00:12:38.555Z,6.37
2019-05-25T00:15:07.999Z,6.40
2019-05-25T00:17:37.303Z,6.30
2019-05-25T00:20:07.640Z,6.47
2019-05-25T00:22:36.951Z,6.63
2019-05-25T00:25:09.276Z,6.00
2019-05-25T00:27:38.660Z,6.50
2019-05-25T00:30:08.491Z,5.93
2019-05-25T00:32:38.189Z,6.70
2019-05-25T00:35:07.888Z,6.00
2019-05-25T00:37:37.254Z,6.63
2019-05-25T00:40:07.399Z,6.30
2019-05-25T00:42:36.776Z,5.80
2019-05-25T00:45:06.525Z,6.17
2019-05-25T00:47:35.985Z,6.10
2019-05-25T00:50:07.087Z,6.30
2019-05-25T00:52:36.403Z,5.73
2019-05-25T00:55:07.651Z,6.40
2019-05-25T00:57:36.946Z,8.07
2019-05-25T01:00:07.589Z,8.37
2019-05-25T01:02:39.819Z,7.93
2019-05-25T01:05:09.502Z,8.10
2019-05-25T01:07:38.810Z,8.07
2019-05-25T01:10:08.510Z,7.93
2019-05-25T01:12:37.876Z,8.43
2019-05-25T01:15:07.996Z,7.60
2019-05-25T01:17:38.267Z,8.10
2019-05-25T01:20:09.923Z,8.13
2019-05-25T01:22:39.659Z,8.23
2019-05-25T01:25:09.513Z,8.67
2019-05-25T01:27:38.832Z,9.43
2019-05-25T01:30:10.350Z,9.30
2019-05-25T01:32:39.766Z,9.30
2019-05-25T01:35:10.550Z,8.67
2019-05-25T01:37:39.875Z,9.70
2019-05-25T01:40:09.718Z,9.13
2019-05-25T01:42:39.020Z,9.93
2019-05-25T01:45:09.064Z,9.23
2019-05-25T01:47:38.371Z,9.73
2019-05-25T01:50:07.918Z,10.03
2019-05-25T01:52:37.232Z,11.10
2019-05-25T01:55:07.038Z,10.80
2019-05-25T01:57:36.417Z,10.50
2019-05-25T02:00:07.937Z,10.07
2019-05-25T02:02:37.259Z,10.80
2019-05-25T02:05:07.310Z,11.47
2019-05-25T02:07:36.618Z,11.80
2019-05-25T02:10:08.868Z,11.03
2019-05-25T02:12:38.181Z,11.30
2019-05-25T02:15:10.729Z,11.47
2019-05-25T02:17:40.036Z,11.40
2019-05-25T02:20:09.878Z,11.17
2019-05-25T02:22:39.186Z,10.57
2019-05-25T02:25:17.530Z,10.00
2019-05-25T02:27:40.767Z,9.90
2019-05-25T02:30:12.389Z,9.83
2019-05-25T02:32:42.739Z,10.83
2019-05-25T02:35:15.123Z,10.83
2019-05-25T02:37:44.431Z,9.43
2019-05-25T02:40:13.730Z,9.90
2019-05-25T02:42:43.043Z,10.10
2019-05-25T02:45:12.486Z,10.10
2019-05-25T02:47:41.789Z,9.80
2019-05-25T02:50:11.163Z,9.40
2019-05-25T02:52:40.488Z,9.23
2019-05-25T02:55:11.963Z,9.43
2019-05-25T02:57:41.342Z,9.20
2019-05-25T03:00:12.359Z,9.23
2019-05-25T03:02:41.770Z,9.93
2019-05-25T03:05:14.311Z,9.53
2019-05-25T03:07:45.199Z,9.90
2019-05-25T03:10:15.846Z,10.73
2019-05-25T03:12:45.426Z,10.30
2019-05-25T03:15:14.966Z,10.53
2019-05-25T03:17:44.276Z,10.30
2019-05-25T03:20:14.926Z,10.07
2019-05-25T03:22:44.759Z,11.60
2019-05-25T03:25:14.184Z,11.90
2019-05-25T03:27:43.510Z,11.60
2019-05-25T03:30:14.259Z,12.73
2019-05-25T03:32:43.646Z,13.80
2019-05-25T03:35:13.748Z,13.13
2019-05-25T03:37:43.056Z,13.47
2019-05-25T03:40:12.505Z,13.53
2019-05-25T03:42:41.816Z,13.33
2019-05-25T03:45:11.183Z,12.97
2019-05-25T03:47:41.724Z,13.50
2019-05-25T03:50:11.266Z,12.70
2019-05-25T03:52:40.583Z,13.70
2019-05-25T03:55:09.979Z,13.43
2019-05-25T03:57:39.367Z,13.90
2019-05-25T04:00:09.008Z,14.77
2019-05-25T04:02:38.351Z,14.27
2019-05-25T04:05:07.904Z,13.97
2019-05-25T04:07:37.216Z,14.60
2019-05-25T04:10:07.147Z,14.53
2019-05-25T04:12:36.460Z,15.30
2019-05-25T04:15:07.098Z,16.03
2019-05-25T04:17:36.487Z,15.93
2019-05-25T04:20:07.402Z,16.10
2019-05-25T04:22:36.714Z,16.90
2019-05-25T04:25:07.167Z,16.00
2019-05-25T04:27:36.547Z,15.87
2019-05-25T04:30:06.623Z,16.13
2019-05-25T04:32:35.928Z,16.13
2019-05-25T04:35:06.881Z,16.07
2019-05-25T04:37:36.195Z,16.03
2019-05-25T04:40:07.207Z,15.30
2019-05-25T04:42:36.594Z,14.97
2019-05-25T04:45:06.755Z,15.27
2019-05-25T04:47:36.063Z,15.27
2019-05-25T04:50:08.370Z,15.00
2019-05-25T04:52:40.929Z,14.87
2019-05-25T04:55:08.937Z,14.97
2019-05-25T04:57:39.280Z,14.13
2019-05-25T05:00:09.431Z,12.80
2019-05-25T05:02:38.744Z,12.73
2019-05-25T05:05:08.219Z,12.43
2019-05-25T05:07:37.522Z,13.17
2019-05-25T05:10:07.674Z,12.23
2019-05-25T05:12:36.975Z,11.50
2019-05-25T05:15:08.426Z,11.17
2019-05-25T05:17:37.722Z,10.70
2019-05-25T05:20:10.267Z,10.63
2019-05-25T05:22:39.582Z,11.00
2019-05-25T05:25:10.036Z,11.00
2019-05-25T05:27:40.075Z,10.67
2019-05-25T05:30:09.892Z,11.60
2019-05-25T05:32:39.263Z,10.67
2019-05-25T05:35:09.460Z,10.20
2019-05-25T05:37:40.795Z,11.27
2019-05-25T05:40:10.442Z,10.97
2019-05-25T05:42:40.988Z,10.47
2019-05-25T05:45:10.442Z,12.93
2019-05-25T05:47:43.314Z,11.87
2019-05-25T05:50:13.263Z,12.03
2019-05-25T05:52:42.571Z,11.73
2019-05-25T05:55:12.428Z,11.33
2019-05-25T05:57:41.791Z,11.20
2019-05-25T06:00:12.702Z,11.57
2019-05-25T06:02:42.008Z,10.37
2019-05-25T06:05:11.387Z,11.07
2019-05-25T06:07:41.674Z,9.37
2019-05-25T06:10:12.121Z,9.83
2019-05-25T06:12:41.431Z,9.20
2019-05-25T06:15:10.966Z,8.30
2019-05-25T06:17:40.271Z,8.50
2019-05-25T06:20:10.001Z,8.67
2019-05-25T06:22:39.298Z,9.53
2019-05-25T06:25:09.447Z,10.30
2019-05-25T06:27:38.845Z,10.20
2019-05-25T06:30:08.978Z,9.60
2019-05-25T06:32:38.404Z,10.17
2019-05-25T06:35:08.174Z,8.60
2019-05-25T06:37:37.835Z,8.50
2019-05-25T06:40:08.680Z,8.30
2019-05-25T06:42:37.965Z,7.37
2019-05-25T06:45:08.798Z,7.57
2019-05-25T06:47:38.100Z,7.17
2019-05-25T06:50:08.411Z,6.73
2019-05-25T06:52:37.711Z,6.80
2019-05-25T06:55:07.446Z,6.87
2019-05-25T06:57:43.136Z,6.00
2019-05-25T07:00:08.574Z,7.27
2019-05-25T07:02:37.938Z,7.43
2019-05-25T07:05:08.381Z,7.13
2019-05-25T07:07:37.737Z,7.33
2019-05-25T07:10:09.071Z,7.57
2019-05-25T07:12:38.397Z,6.93
2019-05-25T07:15:08.586Z,6.57
2019-05-25T07:17:37.887Z,7.03
2019-05-25T07:20:08.526Z,6.30
2019-05-25T07:22:37.840Z,7.00
2019-05-25T07:25:07.585Z,6.30
2019-05-25T07:27:37.055Z,6.57
2019-05-25T07:30:07.463Z,6.87
2019-05-25T07:32:36.839Z,6.37
2019-05-25T07:35:07.210Z,6.60
2019-05-25T07:37:36.507Z,7.27
2019-05-25T07:40:07.813Z,7.00
2019-05-25T07:42:38.147Z,6.60
2019-05-25T07:45:08.486Z,6.50
2019-05-25T07:47:37.861Z,6.80
2019-05-25T07:50:11.872Z,6.60
2019-05-25T07:52:41.171Z,6.87
2019-05-25T07:55:10.543Z,6.60
2019-05-25T07:57:39.839Z,7.30
2019-05-25T08:00:09.401Z,7.23
2019-05-25T08:02:38.763Z,6.30
2019-05-25T08:05:09.039Z,6.67
2019-05-25T08:07:38.343Z,6.17
2019-05-25T08:10:09.093Z,6.13
2019-05-25T08:12:39.366Z,6.53
2019-05-25T08:15:08.910Z,6.93
2019-05-25T08:17:38.201Z,6.37
2019-05-25T08:20:08.142Z,6.63
2019-05-25T08:22:38.412Z,5.67
2019-05-25T08:25:08.657Z,5.80
2019-05-25T08:27:38.998Z,5.35
2019-05-25T08:30:08.935Z,6.10
2019-05-25T08:32:38.235Z,6.50
2019-05-25T08:35:07.910Z,5.00
2019-05-25T08:37:37.224Z,5.83
2019-05-25T08:40:08.790Z,6.67
2019-05-25T08:42:38.092Z,6.35
2019-05-25T08:45:08.036Z,6.53
2019-05-25T08:47:37.336Z,7.28
2019-05-25T08:50:07.544Z,5.87
2019-05-25T08:52:37.247Z,5.00
2019-05-25T08:55:07.602Z,5.72
2019-05-25T08:57:37.041Z,6.22
2019-05-25T09:00:07.360Z,6.17
2019-05-25T09:02:36.739Z,6.28
2019-05-25T09:05:07.482Z,6.83
2019-05-25T09:07:36.782Z,6.80
2019-05-25T09:10:10.232Z,6.47
2019-05-25T09:12:39.607Z,6.37
2019-05-25T09:15:09.143Z,5.80
2019-05-25T09:17:38.616Z,6.90
2019-05-25T09:20:09.534Z,5.60
2019-05-25T09:22:38.834Z,6.17
2019-05-25T09:25:09.196Z,7.13
2019-05-25T09:27:38.562Z,7.33
2019-05-25T09:30:09.005Z,7.53
2019-05-25T09:32:38.310Z,6.70
2019-05-25T09:35:08.147Z,7.37
2019-05-25T09:37:37.442Z,7.83
2019-05-25T09:40:07.084Z,6.07
2019-05-25T09:42:36.529Z,7.07
2019-05-25T09:45:07.219Z,6.90
2019-05-25T09:47:36.571Z,7.00
2019-05-25T09:50:06.759Z,6.97
2019-05-25T09:52:36.075Z,5.17
2019-05-25T09:55:07.115Z,6.23
2019-05-25T09:57:36.410Z,5.57
2019-05-25T10:00:08.319Z,6.63
2019-05-25T10:02:38.893Z,6.33
2019-05-25T10:05:09.083Z,6.87
2019-05-25T10:07:38.384Z,7.53
2019-05-25T10:10:09.722Z,6.17
2019-05-25T10:12:39.172Z,6.50
2019-05-25T10:15:08.798Z,5.57
2019-05-25T10:17:38.164Z,6.70
2019-05-25T10:20:07.802Z,7.20
2019-05-25T10:22:37.112Z,6.00
2019-05-25T10:25:08.258Z,6.20
2019-05-25T10:27:37.632Z,5.63
2019-05-25T10:30:08.867Z,5.90
2019-05-25T10:32:39.134Z,7.40
2019-05-25T10:35:08.570Z,7.90
2019-05-25T10:37:37.891Z,8.03
2019-05-25T10:40:07.927Z,7.30
2019-05-25T10:42:37.293Z,7.23
2019-05-25T10:45:08.412Z,6.80
2019-05-25T10:47:37.719Z,7.73
2019-05-25T10:50:11.899Z,6.90
2019-05-25T10:52:41.371Z,7.00
2019-05-25T10:55:12.015Z,6.10
2019-05-25T10:57:41.329Z,6.93
2019-05-25T11:00:12.075Z,8.60
2019-05-25T11:02:41.387Z,6.70
2019-05-25T11:05:11.119Z,8.30
2019-05-25T11:07:40.424Z,6.67
2019-05-25T11:10:10.271Z,6.83
2019-05-25T11:12:39.644Z,6.80
2019-05-25T11:15:10.655Z,7.80
2019-05-25T11:17:39.955Z,8.53
2019-05-25T11:20:10.399Z,7.33
2019-05-25T11:22:39.766Z,6.90
2019-05-25T11:25:09.913Z,7.53
2019-05-25T11:27:39.202Z,8.30
2019-05-25T11:30:10.676Z,6.77
2019-05-25T11:32:40.092Z,8.90
2019-05-25T11:35:09.539Z,8.03
2019-05-25T11:37:38.845Z,6.10
2019-05-25T11:40:09.185Z,5.57
2019-05-25T11:42:38.483Z,6.70
2019-05-25T11:45:08.731Z,7.00
2019-05-25T11:47:38.755Z,8.00
2019-05-25T11:50:08.793Z,7.77
2019-05-25T11:52:38.626Z,6.60
2019-05-25T11:55:08.855Z,6.67
2019-05-25T11:57:38.288Z,6.53
2019-05-25T12:00:24.156Z,5.53
2019-05-25T12:02:44.987Z,6.53
2019-05-25T12:05:14.377Z,5.37
2019-05-25T12:07:44.964Z,5.40
2019-05-25T12:10:17.010Z,6.30
2019-05-25T12:12:46.379Z,4.73
2019-05-25T12:15:15.818Z,5.43
2019-05-25T12:17:45.220Z,4.87
2019-05-25T12:20:16.669Z,3.50
2019-05-25T12:22:45.974Z,3.20
2019-05-25T12:25:15.527Z,2.90
2019-05-25T12:27:48.324Z,3.43
2019-05-25T12:30:16.855Z,3.07
2019-05-25T12:32:46.159Z,2.60
2019-05-25T12:35:17.218Z,2.40
2019-05-25T12:37:47.492Z,2.23
2019-05-25T12:40:16.926Z,1.80
2019-05-25T12:42:47.190Z,3.63
2019-05-25T12:45:17.254Z,1.37
2019-05-25T12:47:46.555Z,1.37
2019-05-25T12:50:16.293Z,2.50
2019-05-25T12:52:45.592Z,1.30
2019-05-25T12:55:14.898Z,1.03
2019-05-25T12:57:44.258Z,1.00
2019-05-25T13:00:15.907Z,1.23
2019-05-25T13:02:44.883Z,0.90
2019-05-25T13:05:14.424Z,1.00
2019-05-25T13:07:43.792Z,1.00
2019-05-25T13:10:13.335Z,0.70
2019-05-25T13:12:42.635Z,0.90
2019-05-25T13:15:12.875Z,1.40
2019-05-25T13:17:42.170Z,1.07
2019-05-25T13:20:12.399Z,1.33
2019-05-25T13:22:41.698Z,0.80
2019-05-25T13:25:11.339Z,1.00
2019-05-25T13:27:41.617Z,0.97
2019-05-25T13:30:11.357Z,1.00
2019-05-25T13:32:40.651Z,0.90
2019-05-25T13:35:10.312Z,1.17
2019-05-25T13:37:39.852Z,1.00
2019-05-25T13:40:09.594Z,0.93
2019-05-25T13:42:38.968Z,1.23
2019-05-25T13:45:09.308Z,1.23
2019-05-25T13:47:39.407Z,1.20
2019-05-25T13:50:12.365Z,1.30
2019-05-25T13:52:41.658Z,1.27
2019-05-25T13:55:11.292Z,1.20
2019-05-25T13:57:40.594Z,1.30
2019-05-25T14:00:11.471Z,1.10
2019-05-25T14:02:40.797Z,1.00
2019-05-25T14:05:10.358Z,0.90
2019-05-25T14:07:39.681Z,1.00
2019-05-25T14:10:09.321Z,1.30
2019-05-25T14:12:38.686Z,1.30
2019-05-25T14:15:09.914Z,1.23
2019-05-25T14:17:39.311Z,1.10
2019-05-25T14:20:09.852Z,1.13
2019-05-25T14:22:39.142Z,1.00
2019-05-25T14:25:08.755Z,1.07
2019-05-25T14:27:39.052Z,1.20
2019-05-25T14:30:09.163Z,1.20
2019-05-25T14:32:38.712Z,0.90
2019-05-25T14:35:08.143Z,1.10
2019-05-25T14:37:37.451Z,1.20
2019-05-25T14:40:11.075Z,1.30
2019-05-25T14:42:38.803Z,1.00
2019-05-25T14:45:09.549Z,1.10
2019-05-25T14:47:38.844Z,1.37
2019-05-25T14:50:09.990Z,1.00
2019-05-25T14:52:42.506Z,1.10
2019-05-25T14:55:10.720Z,1.00
2019-05-25T14:57:40.138Z,1.70
2019-05-25T15:00:12.310Z,1.30
2019-05-25T15:02:41.635Z,1.27
2019-05-25T15:05:11.279Z,1.27
2019-05-25T15:07:40.643Z,1.07
2019-05-25T15:10:11.352Z,1.10
2019-05-25T15:12:40.646Z,1.43
2019-05-25T15:15:10.593Z,1.23
2019-05-25T15:17:42.348Z,0.97
2019-05-25T15:20:12.118Z,1.00
2019-05-25T15:22:41.411Z,1.23
2019-05-25T15:25:11.914Z,1.30
2019-05-25T15:27:41.214Z,1.30
2019-05-25T15:30:12.263Z,1.03
2019-05-25T15:32:41.569Z,1.50
2019-05-25T15:35:11.052Z,1.67
2019-05-25T15:37:40.437Z,1.60
2019-05-25T15:40:10.696Z,1.33
2019-05-25T15:42:39.992Z,1.40
2019-05-25T15:45:09.726Z,1.40
2019-05-25T15:47:39.032Z,1.80
2019-05-25T15:50:11.282Z,1.57
2019-05-25T15:52:40.592Z,1.40
2019-05-25T15:55:10.590Z,1.20
2019-05-25T15:57:39.891Z,1.60
2019-05-25T16:00:11.192Z,1.60
2019-05-25T16:02:40.491Z,1.60
2019-05-25T16:05:10.424Z,1.67
2019-05-25T16:07:42.866Z,1.33
2019-05-25T16:10:12.588Z,1.40
2019-05-25T16:12:41.886Z,1.70
2019-05-25T16:15:11.359Z,1.33
2019-05-25T16:17:40.827Z,1.40
2019-05-25T16:20:10.610Z,1.40
2019-05-25T16:22:40.719Z,1.60
2019-05-25T16:25:10.224Z,1.60
2019-05-25T16:27:39.674Z,1.53
2019-05-25T16:30:09.118Z,2.30
2019-05-25T16:35:09.874Z,2.17
2019-05-25T16:37:39.588Z,1.63
2019-05-25T16:38:21.035Z,2.20
2019-05-25T16:40:09.540Z,1.93
2019-05-25T16:42:39.448Z,5.93
2019-05-25T16:45:09.474Z,4.07
2019-05-25T16:47:38.811Z,2.93
2019-05-25T16:50:08.941Z,2.37
2019-05-25T16:52:39.624Z,2.10
2019-05-25T16:55:09.328Z,3.97
2019-05-25T16:57:38.622Z,3.27
2019-05-25T17:00:08.483Z,3.83
2019-05-25T17:02:38.001Z,4.37
2019-05-25T17:05:07.743Z,2.80
2019-05-25T17:07:37.034Z,4.93
2019-05-25T17:10:06.677Z,5.03
2019-05-25T17:12:35.975Z,2.80
2019-05-25T17:15:06.819Z,2.77
2019-05-25T17:17:36.134Z,2.20
2019-05-25T17:20:06.362Z,2.30
2019-05-25T17:22:35.659Z,2.03
2019-05-25T17:25:08.239Z,2.10
2019-05-25T17:27:37.539Z,2.23
2019-05-25T17:30:09.054Z,2.40
2019-05-25T17:32:38.355Z,2.53
2019-05-25T17:35:08.662Z,2.40
2019-05-25T17:37:38.935Z,2.30
2019-05-25T17:40:09.720Z,2.23
2019-05-25T17:42:39.047Z,1.87
2019-05-25T17:45:08.655Z,2.37
2019-05-25T17:47:37.954Z,2.23
2019-05-25T17:50:08.533Z,2.30
2019-05-25T17:52:37.831Z,2.53
2019-05-25T17:55:08.324Z,2.40
2019-05-25T17:57:37.631Z,2.63
2019-05-25T18:00:08.376Z,3.13
2019-05-25T18:02:37.755Z,2.77
2019-05-25T18:05:07.786Z,2.90
2019-05-25T18:07:37.090Z,3.90
2019-05-25T18:10:08.025Z,3.07
2019-05-25T18:12:37.384Z,3.10
2019-05-25T18:15:10.158Z,3.50
2019-05-25T18:17:39.466Z,3.00
2019-05-25T18:20:10.584Z,3.53
2019-05-25T18:22:40.951Z,3.23
2019-05-25T18:25:10.487Z,3.47
2019-05-25T18:27:39.795Z,3.30
2019-05-25T18:30:10.835Z,3.50
2019-05-25T18:32:40.131Z,3.67
2019-05-25T18:35:10.556Z,3.40
2019-05-25T18:37:39.854Z,3.30
2019-05-25T18:40:10.593Z,3.60
2019-05-25T18:42:39.891Z,3.30
2019-05-25T18:45:09.631Z,3.67
2019-05-25T18:47:39.481Z,3.30
2019-05-25T18:50:10.334Z,2.70
2019-05-25T18:52:39.627Z,3.80
2019-05-25T18:55:09.262Z,3.23
2019-05-25T18:57:39.190Z,3.10
2019-05-25T19:00:09.330Z,3.20
2019-05-25T19:02:38.870Z,3.23
2019-05-25T19:05:08.748Z,3.70
2019-05-25T19:07:38.165Z,4.07
2019-05-25T19:10:08.405Z,3.00
2019-05-25T19:12:37.838Z,3.00
2019-05-25T19:15:10.030Z,3.20
2019-05-25T19:17:39.394Z,3.00
2019-05-25T19:20:09.390Z,3.67
2019-05-25T19:22:38.723Z,3.77
2019-05-25T19:25:10.881Z,3.50
2019-05-25T19:27:40.176Z,3.00
2019-05-25T19:30:10.622Z,3.43
2019-05-25T19:32:39.987Z,3.53
2019-05-25T19:35:10.323Z,2.93
2019-05-25T19:37:42.301Z,3.43
2019-05-25T19:40:10.924Z,3.63
2019-05-25T19:42:40.230Z,3.10
2019-05-25T19:45:09.976Z,3.03
2019-05-25T19:47:39.278Z,3.63
2019-05-25T19:50:09.125Z,2.80
2019-05-25T19:52:38.424Z,2.80
2019-05-25T19:55:08.959Z,2.80
2019-05-25T19:57:45.527Z,3.47
2019-05-25T20:00:15.519Z,3.60
2019-05-25T20:02:45.086Z,3.50
2019-05-25T20:05:16.955Z,3.70
2019-05-25T20:07:45.822Z,3.20
2019-05-25T20:10:15.566Z,3.03
2019-05-25T20:12:44.870Z,2.63
2019-05-25T20:15:14.511Z,3.30
2019-05-25T20:17:43.816Z,3.50
2019-05-25T20:20:13.652Z,2.97
2019-05-25T20:22:43.028Z,3.10
2019-05-25T20:25:12.412Z,3.97
2019-05-25T20:27:41.761Z,2.93
2019-05-25T20:30:11.222Z,3.10
2019-05-25T20:32:40.519Z,2.97
2019-05-25T20:35:09.967Z,3.27
2019-05-25T20:37:39.271Z,3.00
2019-05-25T20:40:09.533Z,3.10
2019-05-25T20:42:40.083Z,2.83
2019-05-25T20:45:10.018Z,2.60
2019-05-25T20:47:39.403Z,2.30
2019-05-25T20:50:10.261Z,2.80
2019-05-25T20:52:39.623Z,2.77
2019-05-25T20:55:09.078Z,2.90
2019-05-25T20:57:38.541Z,3.17
2019-05-25T21:00:09.182Z,2.97
2019-05-25T21:02:38.647Z,3.03
2019-05-25T21:05:08.674Z,2.83
2019-05-25T21:07:38.014Z,2.73
2019-05-25T21:10:08.871Z,2.53
2019-05-25T21:12:38.223Z,2.97
2019-05-25T21:15:08.764Z,2.40
2019-05-25T21:17:38.132Z,2.90
2019-05-25T21:20:08.075Z,2.60
2019-05-25T21:22:37.375Z,3.10
2019-05-25T21:25:08.682Z,3.07
2019-05-25T21:27:37.980Z,3.23
2019-05-25T21:30:09.195Z,2.70
2019-05-25T21:32:38.495Z,3.80
2019-05-25T21:35:08.925Z,3.77
2019-05-25T21:37:38.211Z,3.20
2019-05-25T21:40:07.963Z,3.03
2019-05-25T21:42:37.340Z,3.10
2019-05-25T21:45:07.380Z,3.00
2019-05-25T21:47:36.680Z,3.27
2019-05-25T21:50:06.639Z,3.53
2019-05-25T21:52:36.179Z,3.37
2019-05-25T21:55:05.873Z,3.40
2019-05-25T21:57:35.159Z,3.13
2019-05-25T22:00:08.656Z,2.97
2019-05-25T22:02:38.412Z,3.27
2019-05-25T22:05:08.267Z,3.27
2019-05-25T22:07:37.588Z,3.20
2019-05-25T22:10:07.519Z,3.53
2019-05-25T22:12:39.959Z,3.60
2019-05-25T22:15:11.940Z,3.60
2019-05-25T22:17:41.371Z,3.87
2019-05-25T22:20:10.818Z,3.63
2019-05-25T22:22:40.312Z,3.67
2019-05-25T22:25:09.915Z,3.67
2019-05-25T22:27:39.217Z,3.80
2019-05-25T22:30:09.026Z,3.33
2019-05-25T22:32:38.324Z,3.13
2019-05-25T22:35:08.164Z,3.43
2019-05-25T22:37:37.453Z,3.60
2019-05-25T22:40:09.850Z,3.47
2019-05-25T22:42:39.157Z,4.20
2019-05-25T22:45:08.813Z,4.10
2019-05-25T22:47:38.171Z,3.77
2019-05-25T22:50:09.338Z,4.10
2019-05-25T22:52:38.703Z,3.73
2019-05-25T22:55:08.847Z,3.73
2019-05-25T22:57:38.155Z,3.60
2019-05-25T23:00:10.034Z,3.30
2019-05-25T23:02:39.747Z,3.53
2019-05-25T23:05:09.485Z,3.67
2019-05-25T23:07:38.806Z,3.57
2019-05-25T23:10:10.148Z,3.23
2019-05-25T23:12:39.455Z,3.53
2019-05-25T23:15:09.499Z,3.67
2019-05-25T23:17:38.954Z,3.80
2019-05-25T23:20:08.688Z,3.70
2019-05-25T23:22:38.062Z,4.27
2019-05-25T23:25:08.322Z,3.50
2019-05-25T23:27:37.761Z,3.53
2019-05-25T23:30:07.710Z,3.47
2019-05-25T23:32:37.138Z,3.43
2019-05-25T23:35:07.123Z,3.43
2019-05-25T23:37:36.447Z,3.60
2019-05-25T23:40:09.059Z,3.90
2019-05-25T23:42:38.382Z,3.70
2019-05-25T23:45:08.000Z,3.70
2019-05-25T23:47:37.293Z,3.57
2019-05-25T23:50:08.527Z,3.20
2019-05-25T23:52:37.935Z,3.40
2019-05-25T23:55:07.411Z,3.63
2019-05-25T23:57:36.697Z,3.30
